Flight Track Log - Related Links

Times and Time Zones

All times are in EDT time to prevent confusion due to time zone crossing. See the RPA3383 flight status page for this flight to view local times or setup timezone preferences in your user account.

Time Position Orientation Groundspeed Altitude Reporting Facility
EDT Latitude Longitude Course Direction KTS MPH feet Rate Location/Type
08:58AM 38.8833 -77.0667 90° East 159 183 1,600  Level Potomac TRACON
08:59AM 38.9167 -77.1000 322° Northwest 221 254 3,600 2,579 Climbing Potomac TRACON
09:00AM 38.6266 -76.8022 134° Southeast  Level FlightAware Approximate
09:00AM 38.9667 -77.1667 314° West 254 292 6,500  Level Potomac TRACON
09:01AM 38.5538 -76.7205 142° Southeast  Level FlightAware Approximate
09:01AM 39.0333 -77.1500 11° North 309 356 9,200  Level Potomac TRACON
09:02AM 38.4587 -76.7017 171° South  Level FlightAware Approximate
09:02AM 39.0500 -77.0333 80° East 336 387 11,800  Level Potomac TRACON
09:03AM 38.3667 -76.6937 90° East  Level FlightAware Approximate
09:03AM 39.0333 -76.9333 102° East 354 407 13,900  Level Potomac TRACON
09:04AM 38.9500 -76.8833 155° Southeast 305 351 16,300 2,150 Climbing Potomac TRACON
09:05AM 38.8667 -76.8500 163° South 292 336 18,200 1,246 Climbing Potomac TRACON
09:06AM 38.7694 -76.8164 165° South 347 399 19,000 364 Climbing Washington Center
09:07AM 38.6803 -76.7803 162° South 347 399 19,000  Level Washington Center
09:08AM 38.5703 -76.7336 162° South 356 410 19,000 101 Level Washington Center
09:09AM 38.4661 -76.7133 171° South 377 434 19,200 807 Climbing Washington Center
09:10AM 38.3600 -76.7011 175° South 383 441 20,600 1,664 Climbing Washington Center
09:11AM 38.2619 -76.6839 172° South 389 448 22,500 1,525 Climbing Washington Center
09:12AM 38.1494 -76.6717 175° South 399 459 23,700 1,140 Climbing Washington Center
09:13AM 38.0331 -76.6567 174° South 410 472 24,800 1,091 Climbing Washington Center
09:14AM 37.9142 -76.6525 178° South 422 486 25,900 1,109 Climbing Washington Center
09:15AM 37.7972 -76.6667 185° South 422 486 27,000 1,000 Climbing Washington Center
09:16AM 37.6761 -76.6833 186° South 429 494 27,900 934 Climbing Washington Center
09:17AM 37.5550 -76.7000 186° South 434 499 28,900 1,119 Climbing Washington Center
09:18AM 37.4339 -76.7192 187° South 439 505 30,100 1,525 Climbing Washington Center
09:19AM 37.3269 -76.7619 198° South 428 493 31,900 1,388 Climbing Washington Center
09:20AM 37.2139 -76.8072 198° South 405 466 32,900 738 Climbing Washington Center
09:21AM 37.1111 -76.8525 199° South 399 459 33,400 545 Climbing Washington Center
09:22AM 37.0086 -76.8950 198° South 394 453 34,000 305 Climbing Washington Center
09:23AM 36.9081 -76.9375 199° South 389 448 34,000  Level Washington Center
09:24AM 36.8031 -76.9797 198° South 389 448 34,000  Level Washington Center
09:25AM 36.7003 -77.0244 199° South 389 448 34,000  Level Washington Center
09:26AM 36.5978 -77.0667 198° South 389 448 34,000  Level Washington Center
09:27AM 36.4928 -77.1086 198° South 389 448 34,000  Level Washington Center
09:28AM 36.3922 -77.1506 199° South 389 448 34,000  Level Washington Center
09:29AM 36.2956 -77.1872 197° South 397 457 34,000  Level Washington Center
09:30AM 36.1928 -77.2342 200° South 397 457 34,000  Level Washington Center
09:31AM 36.0794 -77.2753 196° South 391 450 34,000  Level Washington Center
09:32AM 35.9747 -77.3194 199° South 396 456 34,000  Level Washington Center
09:33AM 35.8778 -77.3736 204° Southwest 396 456 34,000  Level Washington Center
09:34AM 35.7953 -77.4486 216° Southwest 383 441 34,000  Level Washington Center
09:35AM 35.7147 -77.5261 218° Southwest 383 441 34,000  Level Washington Center
09:36AM 35.6322 -77.6006 216° Southwest 378 435 34,000  Level Washington Center
09:37AM 35.5517 -77.6753 217° Southwest 372 428 34,000  Level Washington Center
09:38AM 35.4689 -77.7497 216° Southwest 372 428 34,000  Level Washington Center
09:39AM 35.3883 -77.8264 218° Southwest 372 428 34,000  Level Washington Center
09:40AM 35.3056 -77.9006 216° Southwest 372 428 34,000  Level Washington Center
09:41AM 35.2333 -77.9669 217° Southwest 372 428 34,000  Level Washington Center
09:42AM 35.1525 -78.0408 217° Southwest 372 428 34,000  Level Washington Center
09:43AM 35.0717 -78.1144 217° Southwest 372 428 34,000  Level Washington Center
09:44AM 34.9928 -78.1856 216° Southwest 372 428 34,000  Level Washington Center
09:45AM 34.9161 -78.2567 217° Southwest 367 422 34,000  Level Washington Center
09:47AM 34.7417 -78.4208 218° Southwest 352 405 34,000  Level Jacksonville Center
09:48AM 34.6667 -78.4828 214° Southwest 357 411 34,000  Level Jacksonville Center
09:49AM 34.5878 -78.5525 216° Southwest 357 411 34,000  Level Jacksonville Center
09:50AM 34.5069 -78.6244 216° Southwest 357 411 34,000  Level Jacksonville Center
09:51AM 34.4219 -78.7067 219° Southwest 357 411 34,000  Level Jacksonville Center
09:52AM 34.3389 -78.7811 217° Southwest 362 417 34,000  Level Jacksonville Center
09:53AM 34.2578 -78.8528 216° Southwest 367 422 34,000  Level Jacksonville Center
09:54AM 34.1767 -78.9244 216° Southwest 367 422 34,000  Level Jacksonville Center
09:55AM 34.0933 -78.9983 216° Southwest 372 428 34,000  Level Jacksonville Center
09:56AM 34.0100 -79.0697 215° Southwest 372 428 34,000  Level Jacksonville Center
09:57AM 33.9289 -79.1408 216° Southwest 372 428 34,000  Level Jacksonville Center
09:58AM 33.8475 -79.2142 217° Southwest 377 434 34,000  Level Jacksonville Center
09:59AM 33.7619 -79.2853 215° Southwest 377 434 34,000  Level Jacksonville Center
10:00AM 33.6844 -79.3533 216° Southwest 372 428 34,000  Level Jacksonville Center
10:01AM 33.6031 -79.4289 218° Southwest 372 428 34,000  Level Jacksonville Center
10:02AM 33.5175 -79.4994 215° Southwest 372 428 34,000  Level Jacksonville Center
10:03AM 33.4339 -79.5750 217° Southwest 377 434 34,000  Level Jacksonville Center
10:04AM 33.3481 -79.6453 214° Southwest 377 434 34,000  Level Jacksonville Center
10:05AM 33.2644 -79.7203 217° Southwest 377 434 34,000  Level Jacksonville Center
10:06AM 33.1806 -79.7928 216° Southwest 377 434 34,000  Level Jacksonville Center
10:07AM 33.1050 -79.8575 216° Southwest 377 434 34,000  Level Jacksonville Center
10:08AM 33.0169 -79.9297 215° Southwest 382 440 34,000  Level Jacksonville Center
10:09AM 32.9311 -80.0042 216° Southwest 382 440 34,000  Level Jacksonville Center
10:10AM 32.8408 -80.0739 213° Southwest 382 440 34,000  Level Jacksonville Center
10:11AM 32.7544 -80.1408 213° Southwest 382 440 34,000  Level Jacksonville Center
10:12AM 32.6642 -80.2078 212° Southwest 387 445 34,000  Level Jacksonville Center
10:13AM 32.5717 -80.2769 212° Southwest 387 445 34,000  Level Jacksonville Center
10:14AM 32.4811 -80.3436 212° Southwest 387 445 34,000 -200 Level Jacksonville Center
10:15AM 32.3864 -80.4078 210° Southwest 387 445 33,600 -900 Descending Jacksonville Center
10:16AM 32.2831 -80.4575 202° Southwest 387 445 32,200 -800 Descending Jacksonville Center
10:17AM 32.1794 -80.5019 200° South 399 459 32,000 -100 Descending Jacksonville Center
10:18AM 32.0656 -80.5514 200° South 394 453 32,000  Level Jacksonville Center
10:19AM 31.9703 -80.5931 200° South 405 466 32,000  Level Jacksonville Center
10:20AM 31.8522 -80.6425 200° South 405 466 32,000  Level Jacksonville Center
10:21AM 31.7422 -80.6892 200° South 410 472 32,000  Level Jacksonville Center
10:22AM 31.6469 -80.7303 200° South 410 472 32,000  Level Jacksonville Center
10:23AM 31.5267 -80.7819 200° South 422 486 32,000  Level Jacksonville Center
10:24AM 31.4211 -80.8256 199° South 414 476 32,000  Level Jacksonville Center
10:25AM 31.3092 -80.8744 200° South 420 483 32,000  Level Jacksonville Center
10:26AM 31.2011 -80.9156 198° South 420 483 32,000  Level Jacksonville Center
10:27AM 31.0933 -80.9639 201° Southwest 415 478 32,000  Level Jacksonville Center
10:28AM 30.9875 -81.0097 200° South 415 478 32,000  Level Jacksonville Center
10:29AM 30.8839 -81.0528 200° South 415 478 32,000  Level Jacksonville Center
10:30AM 30.7778 -81.0961 199° South 410 472 32,000  Level Jacksonville Center
10:31AM 30.6700 -81.1392 199° South 410 472 32,000  Level Jacksonville Center
10:32AM 30.5531 -81.1364 179° South 410 472 32,000  Level Jacksonville Center
10:33AM 30.4294 -81.1025 167° South 425 489 32,000  Level Jacksonville Center
10:34AM 30.3056 -81.0689 167° South 447 514 32,000  Level Jacksonville Center
10:35AM 30.1822 -81.0422 169° South 453 521 32,000  Level Jacksonville Center
10:36AM 30.0606 -81.0111 168° South 453 521 32,000  Level Jacksonville Center
10:37AM 29.9389 -80.9800 168° South 453 521 32,000  Level Jacksonville Center
10:38AM 29.8156 -80.9536 169° South 453 521 32,000  Level Jacksonville Center
10:40AM 29.6161 -80.9011 167° South 441 507 32,000  Level Miami Center
10:41AM 29.4900 -80.8678 167° South 453 521 32,000  Level Miami Center
10:42AM 29.3675 -80.8444 171° South 453 521 32,000  Level Miami Center
10:43AM 29.2453 -80.8161 169° South 453 521 32,000  Level Miami Center
10:44AM 29.1256 -80.7739 163° South 453 521 32,000  Level Miami Center
10:45AM 29.0064 -80.7125 156° South 453 521 32,000  Level Miami Center
10:46AM 28.8911 -80.6517 155° Southeast 459 528 32,000  Level Miami Center
10:47AM 28.7736 -80.5933 156° South 464 534 32,000  Level Miami Center
10:48AM 28.6667 -80.5400 156° South 464 534 32,000 -150 Level Miami Center
10:49AM 28.5492 -80.4842 157° South 464 534 31,700 -1,350 Descending Miami Center
10:50AM 28.4189 -80.4328 161° South 458 527 29,300 -2,200 Descending Miami Center
10:51AM 28.3028 -80.4006 166° South 439 505 27,300 -1,950 Descending Miami Center
10:52AM 28.1931 -80.3689 166° South 424 488 25,400 -1,900 Descending Miami Center
10:53AM 28.0872 -80.3397 166° South 411 473 23,500 -1,850 Descending Miami Center
10:54AM 27.9897 -80.3156 168° South 406 467 21,700 -1,900 Descending Miami Center
10:55AM 27.8778 -80.2864 167° South 386 444 19,700 -1,900 Descending Miami Center
10:56AM 27.7803 -80.2578 165° South 372 428 17,900 -1,650 Descending Miami Center
10:57AM 27.6850 -80.2336 167° South 359 413 16,400 -1,550 Descending Miami Center
10:58AM 27.5997 -80.2125 168° South 353 406 14,800 -1,600 Descending Miami Center
10:59AM 27.5128 -80.1889 166° South 348 400 13,200 -1,700 Descending Miami Center
11:00AM 27.4172 -80.1628 166° South 325 374 11,400 -1,600 Descending Miami Center
11:01AM 27.3361 -80.1417 167° South 310 357 10,000 -700 Descending Miami Center
11:02AM 27.2572 -80.1325 174° South 297 342 10,000 -100 Level Miami Center
11:03AM 27.1911 -80.1003 157° South 286 329 9,800 -850 Descending Miami Center
11:04AM 27.1189 -80.0631 155° Southeast 286 329 8,300 -1,600 Descending Miami Center
11:05AM 27.0422 -80.0261 157° South 277 319 6,600 -1,550 Descending Miami Center
11:06AM 26.9742 -79.9939 157° South 272 313 5,200 -1,300 Descending Miami Center
11:07AM 26.9108 -80.0203 200° South 244 281 4,000 -600 Descending Miami Center
11:08AM 26.8619 -80.0631 218° Southwest 227 261 4,000  Level Miami Center
11:10AM 26.7918 -80.2322 265° West  Level FlightAware Approximate
11:17AM 26.6832 -80.0956 110° East  Level Estimated
11:18AM 26.6832 -80.0956 110° East  Level Estimated
11:19AM 26.6832 -80.0956 110° East  Level Estimated
11:20AM 26.6832 -80.0956 110° East  Level Estimated
11:21AM 26.6832 -80.0956 110° East  Level Estimated
11:22AM 26.6832 -80.0956 110° East  Level Estimated
11:23AM 26.6832 -80.0956 110° East  Level Estimated

Login

Don't have an account? Register now (free) for customized features, flight alerts, and more!